This is the latest recevied weather packets stored in our database for station/object W1HVD. If no packets are shown the sender has not sent any weather packets the latest 10 day(s).
| Time | Temp. | Humidity | Pressure | Rain* | Wind** | Luminosity | Snow |
|---|---|---|---|---|---|---|---|
| 1777481062 | 12.78° C | 72% | 1014.9 hPa | 0 mm | - | 648 W/m² | - |
| 1777480759 | 13.89° C | 70% | 1015 hPa | 0 mm | - | 478 W/m² | - |
| 1777480456 | 13.89° C | 69% | 1015.2 hPa | 0 mm | - | 796 W/m² | - |
| 1777480152 | 13.33° C | 70% | 1015.4 hPa | 0 mm | - | 601 W/m² | - |
| 1777479849 | 12.78° C | 73% | 1015.2 hPa | 0 mm | - | 781 W/m² | - |
| 1777479545 | 13.33° C | 71% | 1015.2 hPa | 0 mm | - | 436 W/m² | - |
| 1777479242 | 12.78° C | 72% | 1015.1 hPa | 0 mm | - | 411 W/m² | - |
| 1777478939 | 12.78° C | 72% | 1015.3 hPa | 0 mm | - | 860 W/m² | - |
| 1777478636 | 12.78° C | 73% | 1015.2 hPa | 0 mm | - | 842 W/m² | - |
| 1777478333 | 11.67° C | 76% | 1015.2 hPa | 0 mm | - | 848 W/m² | - |
| 1777478029 | 11.67° C | 76% | 1015.4 hPa | 0 mm | - | 796 W/m² | - |
| 1777477724 | 11.11° C | 77% | 1015.8 hPa | 0 mm | - | 721 W/m² | - |
| 1777477421 | 11.67° C | 77% | 1015.9 hPa | 0 mm | - | 744 W/m² | - |
| 1777477117 | 11.11° C | 78% | 1016.1 hPa | 0 mm | - | 359 W/m² | - |
| 1777476815 | 10.56° C | 79% | 1016 hPa | 0 mm | - | 464 W/m² | - |
| 1777476512 | 10.56° C | 79% | 1016.1 hPa | 0 mm | - | 347 W/m² | - |
| 1777476208 | 11.11° C | 78% | 1016.3 hPa | 0 mm | - | 343 W/m² | - |
| 1777475904 | 10.56° C | 79% | 1016.3 hPa | 0 mm | - | 343 W/m² | - |
| 1777475600 | 10.56° C | 78% | 1016.5 hPa | 0 mm | - | 340 W/m² | - |
| 1777475297 | 11.11° C | 78% | 1016.8 hPa | 0 mm | - | 372 W/m² | - |
| 1777474992 | 10.56° C | 79% | 1016.8 hPa | 0 mm | - | 361 W/m² | - |
| 1777474689 | 10° C | 81% | 1017.2 hPa | 0 mm | - | 316 W/m² | - |
| 1777474385 | 10.56° C | 80% | 1017.3 hPa | 0 mm | - | 245 W/m² | - |
| 1777474081 | 10.56° C | 81% | 1017.3 hPa | 0 mm | - | 262 W/m² | - |
| 1777473780 | 10° C | 82% | 1017.4 hPa | 0 mm | - | 279 W/m² | - |
* Rain latest hour (hover to see other rain measurements)
** Current wind speed in m/s (hover to see current wind gust speed)